createdAt,value
2023-02-05T00:01:28.376Z,1.63
2023-02-05T00:03:55.211Z,0.95
2023-02-05T00:06:21.942Z,1.78
2023-02-05T00:08:48.883Z,0.96
2023-02-05T00:11:15.998Z,1.41
2023-02-05T00:13:43.346Z,1.71
2023-02-05T00:16:12.362Z,1.73
2023-02-05T00:18:39.229Z,1.84
2023-02-05T00:21:06.703Z,1.51
2023-02-05T00:23:34.505Z,1.43
2023-02-05T00:26:01.832Z,1.68
2023-02-05T00:28:28.572Z,1.84
2023-02-05T00:30:55.450Z,1.98
2023-02-05T00:33:22.275Z,1.38
2023-02-05T00:35:49.931Z,1.50
2023-02-05T00:38:17.750Z,1.43
2023-02-05T00:40:44.503Z,1.19
2023-02-05T00:43:11.399Z,1.67
2023-02-05T00:45:38.266Z,1.90
2023-02-05T00:48:05.849Z,1.81
2023-02-05T00:50:33.580Z,0.65
2023-02-05T00:53:00.503Z,1.33
2023-02-05T00:55:27.336Z,1.56
2023-02-05T00:57:54.993Z,0.97
2023-02-05T01:00:22.108Z,0.90
2023-02-05T01:02:48.979Z,1.20
2023-02-05T01:05:15.901Z,0.91
2023-02-05T01:07:42.801Z,0.78
2023-02-05T01:10:09.766Z,1.35
2023-02-05T01:12:36.787Z,1.39
2023-02-05T01:15:06.093Z,1.12
2023-02-05T01:17:33.937Z,1.88
2023-02-05T01:20:01.127Z,0.85
2023-02-05T01:22:28.214Z,0.96
2023-02-05T01:24:54.961Z,0.83
2023-02-05T01:27:21.953Z,1.06
2023-02-05T01:29:48.696Z,1.10
2023-02-05T01:32:15.539Z,0.99
2023-02-05T01:34:42.303Z,1.08
2023-02-05T01:37:09.114Z,1.01
2023-02-05T01:39:37.509Z,1.09
2023-02-05T01:42:15.164Z,1.15
2023-02-05T01:44:41.991Z,1.02
2023-02-05T01:47:08.724Z,1.36
2023-02-05T01:49:39.128Z,1.71
2023-02-05T01:52:11.626Z,1.02
2023-02-05T01:54:43.267Z,0.96
2023-02-05T01:57:17.000Z,1.13
2023-02-05T01:59:45.239Z,1.50
2023-02-05T02:02:12.645Z,1.31
2023-02-05T02:05:02.619Z,1.38
2023-02-05T02:07:29.565Z,1.22
2023-02-05T02:09:56.420Z,1.39
2023-02-05T02:12:30.175Z,1.55
2023-02-05T02:15:01.643Z,1.36
2023-02-05T02:17:29.506Z,1.03
2023-02-05T02:20:07.225Z,1.08
2023-02-05T02:22:34.006Z,0.89
2023-02-05T02:25:33.384Z,1.13
2023-02-05T02:28:24.857Z,1.22
2023-02-05T02:31:10.721Z,1.06
2023-02-05T02:33:50.801Z,1.41
2023-02-05T02:36:47.590Z,0.96
2023-02-05T02:39:21.837Z,0.61
2023-02-05T02:41:56.846Z,0.90
2023-02-05T02:44:50.067Z,1.12
2023-02-05T02:47:20.691Z,1.36
2023-02-05T02:50:01.332Z,1.47
2023-02-05T02:52:33.850Z,1.44
2023-02-05T02:55:07.969Z,1.18
2023-02-05T02:57:39.663Z,1.42
2023-02-05T03:00:13.509Z,1.65
2023-02-05T03:02:43.691Z,1.08
2023-02-05T03:05:16.148Z,1.23
2023-02-05T03:08:02.396Z,0.66
2023-02-05T03:10:44.594Z,0.81
2023-02-05T03:13:14.900Z,1.10
2023-02-05T03:15:48.200Z,1.19
2023-02-05T03:18:18.211Z,0.91
2023-02-05T03:20:53.265Z,1.12
2023-02-05T03:23:20.458Z,0.83
2023-02-05T03:25:47.522Z,1.00
2023-02-05T03:28:17.538Z,0.45
2023-02-05T03:31:18.820Z,0.91
2023-02-05T03:34:10.626Z,0.77
2023-02-05T03:36:56.234Z,0.76
2023-02-05T03:39:35.218Z,1.06
2023-02-05T03:42:13.131Z,0.39
2023-02-05T03:45:08.817Z,0.45
2023-02-05T03:47:47.699Z,1.17
2023-02-05T03:50:28.424Z,1.23
2023-02-05T03:53:19.168Z,0.89
2023-02-05T03:55:52.803Z,0.66
2023-02-05T03:58:42.132Z,0.19
2023-02-05T04:01:11.761Z,0.14
2023-02-05T04:03:39.628Z,0.18
2023-02-05T04:06:07.844Z,0.61
2023-02-05T04:08:35.499Z,1.24
2023-02-05T04:11:03.358Z,0.82
2023-02-05T04:13:30.425Z,0.73
2023-02-05T04:15:58.295Z,0.35
2023-02-05T04:18:25.116Z,0.31
2023-02-05T04:20:51.945Z,0.61
2023-02-05T04:23:22.813Z,0.14
2023-02-05T04:25:55.157Z,0.84
2023-02-05T04:28:28.417Z,0.56
2023-02-05T04:30:55.991Z,0.61
2023-02-05T04:33:22.926Z,0.38
2023-02-05T04:35:50.036Z,-0.08
2023-02-05T04:38:16.967Z,0.30
2023-02-05T04:40:44.999Z,0.18
2023-02-05T04:43:11.809Z,0.24
2023-02-05T04:45:38.654Z,0.15
2023-02-05T04:48:06.714Z,0.08
2023-02-05T04:50:33.643Z,0.07
2023-02-05T04:53:03.829Z,0.08
2023-02-05T04:55:31.948Z,0.71
2023-02-05T04:57:59.126Z,0.23
2023-02-05T05:00:26.369Z,0.51
2023-02-05T05:02:53.315Z,0.24
2023-02-05T05:05:20.118Z,0.49
2023-02-05T05:07:47.120Z,-0.11
2023-02-05T05:10:13.856Z,0.45
2023-02-05T05:12:40.804Z,0.09
2023-02-05T05:15:07.976Z,0.23
2023-02-05T05:17:35.370Z,0.67
2023-02-05T05:20:02.464Z,-0.08
2023-02-05T05:22:29.319Z,0.48
2023-02-05T05:24:55.976Z,0.07
2023-02-05T05:27:24.377Z,0.27
2023-02-05T05:29:52.204Z,-0.01
2023-02-05T05:32:19.123Z,0.46
2023-02-05T05:34:45.825Z,0.02
2023-02-05T05:37:12.655Z,-0.08
2023-02-05T05:39:57.622Z,0.52
2023-02-05T05:42:43.362Z,0.19
2023-02-05T05:45:10.251Z,0.13
2023-02-05T05:47:36.927Z,-0.08
2023-02-05T05:50:04.060Z,0.37
2023-02-05T05:52:32.463Z,0.41
2023-02-05T05:54:59.770Z,0.08
2023-02-05T05:57:26.498Z,-0.09
2023-02-05T05:59:53.349Z,-0.18
2023-02-05T06:02:20.218Z,0.53
2023-02-05T06:04:47.077Z,-0.09
2023-02-05T06:07:13.773Z,-0.12
2023-02-05T06:09:40.669Z,0.04
2023-02-05T06:12:07.484Z,0.00
2023-02-05T06:14:34.458Z,0.19
2023-02-05T06:17:01.213Z,0.14
2023-02-05T06:19:28.210Z,0.31
2023-02-05T06:21:54.986Z,0.27
2023-02-05T06:24:21.771Z,-0.13
2023-02-05T06:26:48.552Z,-0.02
2023-02-05T06:29:15.658Z,0.52
2023-02-05T06:31:42.388Z,0.04
2023-02-05T06:34:09.202Z,0.28
2023-02-05T06:36:35.912Z,0.21
2023-02-05T06:39:02.640Z,-0.10
2023-02-05T06:41:29.537Z,0.22
2023-02-05T06:43:56.372Z,0.21
2023-02-05T06:46:23.199Z,0.66
2023-02-05T06:48:49.988Z,0.21
2023-02-05T06:51:16.742Z,0.35
2023-02-05T06:53:43.786Z,0.78
2023-02-05T06:56:10.814Z,0.74
2023-02-05T06:58:37.627Z,0.93
2023-02-05T07:01:05.009Z,1.14
2023-02-05T07:03:31.870Z,0.67
2023-02-05T07:06:06.006Z,0.88
2023-02-05T07:08:33.734Z,0.60
2023-02-05T07:11:01.057Z,0.99
2023-02-05T07:13:29.491Z,0.89
2023-02-05T07:15:57.273Z,1.32
2023-02-05T07:18:24.586Z,0.95
2023-02-05T07:20:51.611Z,0.86
2023-02-05T07:23:18.340Z,1.47
2023-02-05T07:25:45.197Z,1.58
2023-02-05T07:28:12.268Z,2.11
2023-02-05T07:30:39.057Z,2.26
2023-02-05T07:33:06.143Z,2.11
2023-02-05T07:35:36.842Z,2.00
2023-02-05T07:38:04.126Z,2.08
2023-02-05T07:40:31.346Z,2.40
2023-02-05T07:42:59.261Z,2.02
2023-02-05T07:45:25.983Z,1.65
2023-02-05T07:47:53.946Z,2.44
2023-02-05T07:50:20.885Z,2.51
2023-02-05T07:52:47.765Z,2.69
2023-02-05T07:55:14.749Z,2.67
2023-02-05T07:57:41.743Z,2.44
2023-02-05T08:00:09.856Z,2.21
2023-02-05T08:02:39.858Z,2.04
2023-02-05T08:05:07.342Z,2.08
2023-02-05T08:07:34.184Z,2.41
2023-02-05T08:10:00.841Z,2.09
2023-02-05T08:12:27.620Z,2.73
2023-02-05T08:14:55.000Z,2.88
2023-02-05T08:17:21.914Z,2.71
2023-02-05T08:19:50.284Z,2.44
2023-02-05T08:22:17.019Z,2.40
2023-02-05T08:24:43.867Z,2.60
2023-02-05T08:27:10.601Z,2.36
2023-02-05T08:29:37.455Z,2.85
2023-02-05T08:32:05.269Z,2.43
2023-02-05T08:34:32.107Z,2.33
2023-02-05T08:36:59.848Z,2.58
2023-02-05T08:39:27.057Z,2.15
2023-02-05T08:41:56.689Z,2.63
2023-02-05T08:44:23.952Z,2.66
2023-02-05T08:46:50.924Z,3.07
2023-02-05T08:49:17.784Z,2.87
2023-02-05T08:51:44.642Z,2.89
2023-02-05T08:54:13.416Z,3.07
2023-02-05T08:56:43.470Z,2.59
2023-02-05T08:59:10.782Z,2.76
2023-02-05T09:01:41.127Z,3.00
2023-02-05T09:04:08.093Z,3.20
2023-02-05T09:06:35.393Z,3.58
2023-02-05T09:09:02.258Z,2.99
2023-02-05T09:11:30.489Z,2.71
2023-02-05T09:13:58.403Z,3.36
2023-02-05T09:16:26.836Z,3.74
2023-02-05T09:18:55.560Z,3.81
2023-02-05T09:21:22.430Z,3.56
2023-02-05T09:23:49.990Z,3.68
2023-02-05T09:26:16.797Z,3.47
2023-02-05T09:28:43.755Z,3.34
2023-02-05T09:31:15.582Z,3.76
2023-02-05T09:33:46.268Z,3.61
2023-02-05T09:36:21.922Z,3.43
2023-02-05T09:38:50.074Z,3.71
2023-02-05T09:41:43.918Z,3.39
2023-02-05T09:44:16.515Z,3.51
2023-02-05T09:46:46.357Z,3.69
2023-02-05T09:49:27.712Z,3.59
2023-02-05T09:52:20.174Z,3.81
2023-02-05T09:54:55.687Z,3.58
2023-02-05T09:57:43.274Z,3.57
2023-02-05T10:00:30.570Z,3.55
2023-02-05T10:03:17.293Z,3.89
2023-02-05T10:06:32.130Z,3.85
2023-02-05T10:09:43.982Z,3.64
2023-02-05T10:12:32.494Z,3.61
2023-02-05T10:15:40.630Z,3.27
2023-02-05T10:18:25.824Z,3.52
2023-02-05T10:21:11.991Z,2.63
2023-02-05T10:24:12.803Z,2.62
2023-02-05T10:26:50.644Z,3.18
2023-02-05T10:29:47.403Z,3.85
2023-02-05T10:32:29.222Z,3.72
2023-02-05T10:34:59.989Z,3.05
2023-02-05T10:37:46.092Z,3.43
2023-02-05T10:40:16.617Z,3.29
2023-02-05T10:43:00.952Z,3.51
2023-02-05T10:45:29.909Z,2.78
2023-02-05T10:48:01.589Z,2.87
2023-02-05T10:50:43.511Z,3.12
2023-02-05T10:53:10.444Z,2.90
2023-02-05T10:55:37.601Z,3.06
2023-02-05T10:58:35.832Z,3.59
2023-02-05T11:01:03.737Z,3.06
2023-02-05T11:03:30.764Z,3.36
2023-02-05T11:05:59.032Z,3.00
2023-02-05T11:08:35.872Z,3.37
2023-02-05T11:11:04.101Z,2.90
2023-02-05T11:13:31.877Z,2.82
2023-02-05T11:16:01.723Z,3.25
2023-02-05T11:18:33.074Z,3.25
2023-02-05T11:21:02.741Z,3.21
2023-02-05T11:23:32.284Z,2.83
2023-02-05T11:26:01.593Z,2.87
2023-02-05T11:28:31.011Z,3.16
2023-02-05T11:30:59.053Z,3.47
2023-02-05T11:33:29.106Z,3.77
2023-02-05T11:36:05.088Z,3.76
2023-02-05T11:38:34.671Z,3.68
2023-02-05T11:41:12.905Z,3.47
2023-02-05T11:43:52.726Z,3.74
2023-02-05T11:46:22.886Z,3.64
2023-02-05T11:48:52.677Z,4.05
2023-02-05T11:51:29.119Z,4.35
2023-02-05T11:54:01.203Z,4.38
2023-02-05T11:56:28.369Z,4.70
2023-02-05T11:59:00.052Z,4.37
2023-02-05T12:01:32.347Z,3.90
2023-02-05T12:03:59.350Z,4.35
2023-02-05T12:06:43.271Z,4.81
2023-02-05T12:09:14.713Z,4.32
2023-02-05T12:12:06.856Z,4.64
2023-02-05T12:14:44.440Z,4.62
2023-02-05T12:17:25.137Z,4.02
2023-02-05T12:20:07.107Z,4.11
2023-02-05T12:22:55.793Z,4.36
2023-02-05T12:25:34.219Z,4.42
2023-02-05T12:28:40.799Z,4.52
2023-02-05T12:31:36.853Z,4.01
2023-02-05T12:34:15.336Z,4.82
2023-02-05T12:36:49.199Z,4.69
2023-02-05T12:39:39.649Z,3.85
2023-02-05T12:42:59.692Z,4.05
2023-02-05T12:45:51.860Z,3.67
2023-02-05T12:48:27.718Z,3.81
2023-02-05T12:50:57.098Z,3.59
2023-02-05T12:53:54.644Z,3.70
2023-02-05T12:56:24.408Z,3.87
2023-02-05T12:58:58.780Z,3.96
2023-02-05T13:01:39.281Z,3.83
2023-02-05T13:04:07.810Z,3.83
2023-02-05T13:06:46.977Z,4.07
2023-02-05T13:09:19.247Z,4.08
2023-02-05T13:11:57.229Z,4.23
2023-02-05T13:14:34.357Z,4.22
2023-02-05T13:17:29.621Z,4.40
2023-02-05T13:20:03.163Z,4.40
2023-02-05T13:22:48.210Z,4.61
2023-02-05T13:25:38.249Z,4.40
2023-02-05T13:28:42.672Z,4.50
2023-02-05T13:31:19.474Z,4.43
2023-02-05T13:33:46.548Z,3.99
2023-02-05T13:36:13.285Z,4.24
2023-02-05T13:39:01.601Z,4.34
2023-02-05T13:41:59.578Z,4.15
2023-02-05T13:45:01.341Z,4.10
2023-02-05T13:47:59.562Z,4.56
2023-02-05T13:50:47.947Z,4.40
2023-02-05T13:53:44.905Z,4.29
2023-02-05T13:56:55.780Z,4.10
2023-02-05T13:59:34.748Z,3.85
2023-02-05T14:02:02.305Z,3.70
2023-02-05T14:04:40.506Z,3.71
2023-02-05T14:07:24.910Z,3.54
2023-02-05T14:09:56.674Z,3.89
2023-02-05T14:12:27.032Z,3.86
2023-02-05T14:15:18.565Z,3.33
2023-02-05T14:17:45.328Z,3.13
2023-02-05T14:20:24.369Z,3.19
2023-02-05T14:22:53.520Z,2.46
2023-02-05T14:25:36.000Z,1.85
2023-02-05T14:28:24.319Z,2.03
2023-02-05T14:30:58.571Z,2.90
2023-02-05T14:33:42.347Z,2.86
2023-02-05T14:36:22.272Z,2.61
2023-02-05T14:39:17.601Z,2.47
2023-02-05T14:41:52.087Z,2.12
2023-02-05T14:44:24.030Z,2.28
2023-02-05T14:47:08.880Z,1.77
2023-02-05T14:49:41.623Z,1.78
2023-02-05T14:52:37.354Z,1.85
2023-02-05T14:55:13.304Z,1.83
2023-02-05T14:58:04.212Z,2.09
2023-02-05T15:00:35.169Z,2.05
2023-02-05T15:03:05.040Z,2.23
2023-02-05T15:05:48.841Z,1.68
2023-02-05T15:08:15.738Z,1.56
2023-02-05T15:11:00.397Z,2.22
2023-02-05T15:13:27.071Z,1.79
2023-02-05T15:16:08.858Z,2.34
2023-02-05T15:18:40.115Z,1.86
2023-02-05T15:21:20.960Z,1.00
2023-02-05T15:23:53.286Z,1.75
2023-02-05T15:26:26.632Z,1.80
2023-02-05T15:29:01.423Z,1.38
2023-02-05T15:31:43.023Z,1.16
2023-02-05T15:34:21.860Z,1.02
2023-02-05T15:37:06.753Z,1.29
2023-02-05T15:39:56.243Z,1.18
2023-02-05T15:42:31.208Z,1.41
2023-02-05T15:44:58.230Z,0.94
2023-02-05T15:47:27.211Z,0.81
2023-02-05T15:50:01.593Z,1.51
2023-02-05T15:52:31.333Z,1.49
2023-02-05T15:55:01.379Z,1.11
2023-02-05T15:57:31.409Z,1.57
2023-02-05T16:00:00.808Z,1.55
2023-02-05T16:02:30.675Z,1.48
2023-02-05T16:04:58.880Z,1.80
2023-02-05T16:07:30.390Z,1.10
2023-02-05T16:10:00.223Z,1.54
2023-02-05T16:12:27.227Z,1.41
2023-02-05T16:15:06.292Z,1.89
2023-02-05T16:17:44.210Z,1.37
2023-02-05T16:20:21.709Z,1.16
2023-02-05T16:22:57.652Z,1.23
2023-02-05T16:25:33.943Z,0.97
2023-02-05T16:28:05.479Z,0.72
2023-02-05T16:30:42.898Z,0.78
2023-02-05T16:33:34.686Z,0.63
2023-02-05T16:36:04.996Z,0.76
2023-02-05T16:38:32.282Z,0.79
2023-02-05T16:41:08.816Z,0.81
2023-02-05T16:43:40.108Z,0.70
2023-02-05T16:46:07.035Z,0.86
2023-02-05T16:48:37.397Z,0.70
2023-02-05T16:51:05.203Z,0.93
2023-02-05T16:53:37.342Z,0.94
2023-02-05T16:56:16.873Z,1.02
2023-02-05T16:58:47.086Z,1.18
2023-02-05T17:01:14.224Z,1.09
2023-02-05T17:03:48.150Z,1.05
2023-02-05T17:06:16.502Z,1.04
2023-02-05T17:08:49.307Z,0.33
2023-02-05T17:11:37.413Z,1.15
2023-02-05T17:14:29.656Z,0.45
2023-02-05T17:17:00.801Z,0.57
2023-02-05T17:19:33.345Z,0.42
2023-02-05T17:22:15.262Z,0.95
2023-02-05T17:24:43.515Z,0.50
2023-02-05T17:27:16.086Z,0.88
2023-02-05T17:29:43.209Z,0.79
2023-02-05T17:32:16.999Z,0.77
2023-02-05T17:34:45.049Z,0.28
2023-02-05T17:37:12.670Z,0.95
2023-02-05T17:39:39.908Z,0.50
2023-02-05T17:42:19.357Z,0.81
2023-02-05T17:44:46.200Z,0.75
2023-02-05T17:47:13.065Z,0.70
2023-02-05T17:49:40.060Z,0.35
2023-02-05T17:52:06.724Z,0.59
2023-02-05T17:54:34.637Z,-0.04
2023-02-05T17:57:21.482Z,0.42
2023-02-05T17:59:49.266Z,0.27
2023-02-05T18:02:17.074Z,0.54
2023-02-05T18:04:45.005Z,0.64
2023-02-05T18:07:31.880Z,0.64
2023-02-05T18:10:03.169Z,0.61
2023-02-05T18:12:29.953Z,0.97
2023-02-05T18:14:56.670Z,0.74
2023-02-05T18:17:23.547Z,0.37
2023-02-05T18:19:50.436Z,0.75
2023-02-05T18:22:17.352Z,0.55
2023-02-05T18:24:44.315Z,0.69
2023-02-05T18:27:12.223Z,0.56
2023-02-05T18:29:39.381Z,0.97
2023-02-05T18:32:06.727Z,0.36
2023-02-05T18:34:33.720Z,0.58
2023-02-05T18:37:00.864Z,0.31
2023-02-05T18:39:29.487Z,0.66
2023-02-05T18:41:57.654Z,0.35
2023-02-05T18:44:25.996Z,0.18
2023-02-05T18:46:53.998Z,0.57
2023-02-05T18:49:21.293Z,0.36
2023-02-05T18:51:48.053Z,0.83
2023-02-05T18:54:15.257Z,0.58
2023-02-05T18:56:42.055Z,0.14
2023-02-05T18:59:13.312Z,-0.32
2023-02-05T19:01:40.519Z,0.31
2023-02-05T19:04:09.926Z,0.69
2023-02-05T19:06:37.276Z,0.79
2023-02-05T19:09:04.371Z,0.58
2023-02-05T19:11:31.500Z,0.66
2023-02-05T19:14:00.125Z,0.90
2023-02-05T19:16:29.449Z,0.64
2023-02-05T19:18:56.992Z,0.72
2023-02-05T19:21:24.892Z,1.18
2023-02-05T19:23:54.740Z,1.41
2023-02-05T19:26:24.418Z,0.91
2023-02-05T19:28:59.543Z,0.45
2023-02-05T19:31:29.422Z,0.29
2023-02-05T19:33:57.223Z,0.78
2023-02-05T19:36:25.224Z,0.88
2023-02-05T19:38:52.390Z,0.40
2023-02-05T19:41:21.843Z,0.88
2023-02-05T19:43:55.085Z,1.02
2023-02-05T19:46:25.286Z,0.46
2023-02-05T19:48:53.253Z,0.15
2023-02-05T19:51:21.146Z,-0.23
2023-02-05T19:53:48.346Z,-0.29
2023-02-05T19:56:18.425Z,-0.31
2023-02-05T19:58:48.353Z,-0.21
2023-02-05T20:01:25.122Z,-0.01
2023-02-05T20:03:55.428Z,-0.28
2023-02-05T20:06:24.544Z,-0.11
2023-02-05T20:08:51.743Z,0.21
2023-02-05T20:11:18.815Z,0.26
2023-02-05T20:13:46.820Z,0.07
2023-02-05T20:16:17.026Z,0.04
2023-02-05T20:18:44.291Z,0.36
2023-02-05T20:21:13.825Z,0.32
2023-02-05T20:23:40.677Z,0.35
2023-02-05T20:26:08.959Z,0.50
2023-02-05T20:28:57.073Z,-0.02
2023-02-05T20:31:34.548Z,0.29
2023-02-05T20:34:03.203Z,0.19
2023-02-05T20:36:31.208Z,0.64
2023-02-05T20:39:00.391Z,0.11
2023-02-05T20:41:27.207Z,0.22
2023-02-05T20:43:54.789Z,0.33
2023-02-05T20:46:22.933Z,-0.27
2023-02-05T20:48:50.201Z,0.18
2023-02-05T20:51:19.684Z,0.15
2023-02-05T20:53:46.897Z,0.41
2023-02-05T20:56:19.618Z,-0.09
2023-02-05T20:58:47.642Z,-0.05
2023-02-05T21:01:20.396Z,0.23
2023-02-05T21:03:57.782Z,0.33
2023-02-05T21:06:25.733Z,0.53
2023-02-05T21:08:53.461Z,0.33
2023-02-05T21:11:22.019Z,0.52
2023-02-05T21:13:49.791Z,0.66
2023-02-05T21:16:18.685Z,0.68
2023-02-05T21:18:46.893Z,0.72
2023-02-05T21:21:25.264Z,0.73
2023-02-05T21:24:01.395Z,0.46
2023-02-05T21:26:37.216Z,0.99
2023-02-05T21:29:12.541Z,-0.17
2023-02-05T21:31:48.778Z,0.08
2023-02-05T21:34:25.017Z,0.23
2023-02-05T21:36:52.758Z,0.19
2023-02-05T21:39:22.593Z,0.53
2023-02-05T21:41:54.099Z,0.84
2023-02-05T21:44:22.632Z,1.11
2023-02-05T21:46:49.643Z,1.22
2023-02-05T21:49:16.614Z,0.87
2023-02-05T21:51:43.493Z,0.53
2023-02-05T21:54:11.006Z,0.88
2023-02-05T21:56:42.858Z,1.00
2023-02-05T21:59:13.200Z,1.18
2023-02-05T22:01:41.222Z,0.92
2023-02-05T22:04:12.335Z,0.98
2023-02-05T22:06:39.707Z,1.22
2023-02-05T22:09:11.995Z,1.20
2023-02-05T22:11:39.505Z,0.84
2023-02-05T22:14:07.543Z,0.48
2023-02-05T22:16:35.355Z,0.68
2023-02-05T22:19:03.051Z,0.71
2023-02-05T22:21:35.624Z,0.14
2023-02-05T22:24:03.853Z,0.51
2023-02-05T22:26:33.679Z,0.52
2023-02-05T22:29:01.870Z,0.45
2023-02-05T22:31:29.515Z,0.69
2023-02-05T22:33:57.010Z,0.57
2023-02-05T22:36:27.282Z,0.75
2023-02-05T22:38:55.200Z,0.51
2023-02-05T22:41:26.366Z,0.55
2023-02-05T22:43:58.500Z,0.51
2023-02-05T22:46:31.992Z,0.55
2023-02-05T22:49:00.859Z,0.48
2023-02-05T22:51:39.567Z,0.63
2023-02-05T22:54:07.862Z,0.47
2023-02-05T22:56:34.683Z,0.49
2023-02-05T22:59:03.452Z,0.68
2023-02-05T23:01:35.461Z,0.70
2023-02-05T23:04:04.221Z,0.13
2023-02-05T23:06:33.827Z,0.06
2023-02-05T23:09:16.717Z,0.33
2023-02-05T23:11:44.613Z,-0.26
2023-02-05T23:14:12.958Z,0.00
2023-02-05T23:16:42.044Z,0.15
2023-02-05T23:19:12.854Z,0.28
2023-02-05T23:21:40.949Z,0.24
2023-02-05T23:24:08.785Z,-0.01
2023-02-05T23:26:40.124Z,0.55
2023-02-05T23:29:07.499Z,0.41
2023-02-05T23:31:34.842Z,0.27
2023-02-05T23:34:02.065Z,0.03
2023-02-05T23:36:29.042Z,0.11
2023-02-05T23:38:55.956Z,-0.51
2023-02-05T23:41:39.538Z,-0.11
2023-02-05T23:44:18.235Z,0.13
2023-02-05T23:46:46.575Z,0.15
2023-02-05T23:49:13.492Z,0.38
2023-02-05T23:51:40.765Z,0.23
2023-02-05T23:54:09.464Z,0.30
2023-02-05T23:56:36.688Z,0.09
2023-02-05T23:59:04.046Z,-0.20
